Time;durP1;ratioP1;P1;durP2;ratioP2;P2;SDS_P1;SDS_P2;PMS_P1;PMS_P2;Temp;Humidity;BMP_temperature;BMP_pressure;BME280_temperature;BME280_humidity;BME280_pressure;Samples;Min_cycle;Max_cycle;Signal;HPM_P1;HPM_P2
2022/06/23 00:02:30;;;;;;;1.85;1.23;;;24.40;42.80;23.40;100954.00;;;;5054578;28;20060;-67
2022/06/23 00:05:19;;;;;;;3.10;1.10;;;24.30;42.80;23.40;100963.00;;;;5052245;28;20495;-67
2022/06/23 00:08:11;;;;;;;1.55;1.08;;;24.40;42.90;23.40;100956.00;;;;5052679;28;20418;-67
2022/06/23 00:10:59;;;;;;;1.50;1.20;;;24.40;42.90;23.40;100950.00;;;;5042776;28;20041;-67
2022/06/23 00:13:45;;;;;;;1.67;1.38;;;24.40;42.90;23.40;100953.00;;;;5046829;28;20119;-67
2022/06/23 00:16:31;;;;;;;2.28;1.17;;;24.40;42.90;23.30;100949.00;;;;5056043;28;20403;-67
2022/06/23 00:19:18;;;;;;;1.30;1.08;;;24.40;42.90;23.40;100951.00;;;;5060074;28;20048;-67
2022/06/23 00:22:04;;;;;;;1.42;0.93;;;24.40;43.00;23.30;100957.00;;;;5053086;28;20402;-67
2022/06/23 00:24:52;;;;;;;1.48;1.15;;;24.40;43.00;23.40;100947.00;;;;5060464;28;20037;-67
2022/06/23 00:27:39;;;;;;;1.60;1.13;;;24.40;43.00;23.30;100950.00;;;;5050184;28;20044;-67
2022/06/23 00:30:29;;;;;;;2.63;1.30;;;24.40;43.10;23.40;100947.00;;;;5044255;28;20044;-67
2022/06/23 00:33:28;;;;;;;2.65;1.30;;;24.40;43.10;23.40;100948.00;;;;5053035;28;20436;-67
2022/06/23 00:36:33;;;;;;;2.13;1.27;;;24.40;43.20;23.30;100954.00;;;;5048705;28;20044;-67
2022/06/23 00:39:51;;;;;;;3.03;1.23;;;24.40;43.30;23.30;100952.00;;;;5045222;28;20489;-67
2022/06/23 00:42:40;;;;;;;1.67;1.10;;;24.40;43.40;23.30;100951.00;;;;5059874;28;20086;-66
2022/06/23 00:45:46;;;;;;;2.90;1.40;;;24.30;43.30;23.30;100951.00;;;;5043465;28;20133;-67
2022/06/23 00:48:45;;;;;;;2.65;1.38;;;24.30;43.40;23.30;100947.00;;;;5050334;28;20123;-67
2022/06/23 00:51:38;;;;;;;1.25;1.05;;;24.30;43.40;23.30;100947.00;;;;5032438;28;20440;-67
2022/06/23 00:54:31;;;;;;;3.08;1.20;;;24.30;43.40;23.30;100944.00;;;;5053105;28;20470;-67
2022/06/23 00:57:22;;;;;;;1.80;1.10;;;24.40;43.50;23.30;100945.00;;;;5056736;28;20040;-66
2022/06/23 01:00:19;;;;;;;1.63;1.30;;;24.30;43.30;23.30;100941.00;;;;5051881;28;20048;-67
2022/06/23 01:03:38;;;;;;;1.57;1.27;;;24.40;43.60;23.30;100950.00;;;;5051908;28;20675;-67
2022/06/23 01:06:52;;;;;;;2.30;1.17;;;24.40;43.60;23.30;100951.00;;;;5059511;28;20289;-67
2022/06/23 01:09:56;;;;;;;2.53;1.27;;;24.40;43.70;23.30;100948.00;;;;5070331;28;20028;-67
2022/06/23 01:13:13;;;;;;;3.63;1.20;;;24.40;43.60;23.30;100953.00;;;;5052015;28;20231;-67
2022/06/23 01:16:27;;;;;;;2.25;1.30;;;24.40;43.80;23.30;100938.00;;;;5047347;28;20555;-67
2022/06/23 01:19:58;;;;;;;1.60;1.00;;;24.40;43.70;23.30;100942.00;;;;5035230;28;20025;-67
2022/06/23 01:22:52;;;;;;;1.55;1.25;;;24.30;43.60;23.30;100926.00;;;;5009591;28;20080;-67
2022/06/23 01:26:26;;;;;;;3.58;1.42;;;24.40;43.80;23.30;100934.00;;;;4998525;28;20045;-67
2022/06/23 01:29:19;;;;;;;2.90;1.35;;;24.40;43.80;23.30;100929.00;;;;5045466;28;20047;-67
2022/06/23 01:32:25;;;;;;;2.40;1.00;;;24.40;43.90;23.30;100930.00;;;;5064805;28;20132;-67
2022/06/23 01:35:16;;;;;;;2.47;1.40;;;24.30;43.80;23.30;100926.00;;;;5072262;28;20493;-67
2022/06/23 01:38:11;;;;;;;1.65;1.20;;;24.40;43.90;23.30;100914.00;;;;5053623;28;20093;-67
2022/06/23 01:41:00;;;;;;;2.70;1.20;;;24.40;43.90;23.30;100921.00;;;;5051331;28;20044;-67
2022/06/23 01:44:06;;;;;;;2.65;1.40;;;24.30;43.90;23.30;100935.00;;;;5073211;28;20055;-67
2022/06/23 01:46:54;;;;;;;1.45;1.17;;;24.30;44.00;23.30;100929.00;;;;5050370;28;20048;-66
2022/06/23 01:49:41;;;;;;;2.55;1.17;;;24.40;44.00;23.30;100918.00;;;;5053919;28;20086;-66
2022/06/23 01:52:27;;;;;;;1.98;1.30;;;24.50;44.10;23.30;100926.00;;;;5069849;28;20123;-67
2022/06/23 01:55:43;;;;;;;2.90;1.50;;;24.40;44.00;23.30;100928.00;;;;5048036;28;20058;-67
2022/06/23 01:58:47;;;;;;;2.55;1.23;;;24.40;44.10;23.30;100923.00;;;;5049422;28;20025;-67
2022/06/23 02:02:21;;;;;;;1.65;1.08;;;24.30;44.00;23.30;100919.00;;;;5048883;28;20047;-67
2022/06/23 02:05:31;;;;;;;1.90;1.40;;;24.40;44.10;23.30;100917.00;;;;5063175;28;20100;-66
2022/06/23 02:08:35;;;;;;;1.73;1.23;;;24.40;44.10;23.30;100916.00;;;;5064825;28;20036;-67
2022/06/23 02:11:30;;;;;;;2.72;1.55;;;24.30;44.10;23.30;100911.00;;;;5054171;28;20514;-67
2022/06/23 02:14:37;;;;;;;2.17;1.27;;;24.40;44.20;23.30;100916.00;;;;5042982;28;20065;-67
2022/06/23 02:17:38;;;;;;;2.45;1.45;;;24.30;44.20;23.30;100925.00;;;;5063630;28;20039;-67
2022/06/23 02:21:16;;;;;;;2.42;1.13;;;24.30;44.00;23.30;100914.00;;;;5049245;28;20090;-67
2022/06/23 02:24:21;;;;;;;2.47;1.23;;;24.20;44.00;23.30;100923.00;;;;5055162;28;20401;-67
2022/06/23 02:27:30;;;;;;;2.47;1.45;;;24.30;44.00;23.30;100919.00;;;;5059335;28;20364;-67
2022/06/23 02:30:18;;;;;;;1.52;1.20;;;24.30;44.00;23.30;100918.00;;;;5061925;28;20048;-67
2022/06/23 02:33:11;;;;;;;1.13;0.98;;;24.30;44.00;23.30;100924.00;;;;5067352;28;20040;-67
2022/06/23 02:36:41;;;;;;;3.22;1.20;;;24.30;44.10;23.30;100920.00;;;;5058235;28;20496;-67
2022/06/23 02:39:37;;;;;;;3.40;1.25;;;24.30;44.20;23.30;100915.00;;;;5042300;28;20042;-67
2022/06/23 02:42:33;;;;;;;1.63;1.20;;;24.30;44.30;23.30;100912.00;;;;5055424;28;20127;-67
2022/06/23 02:46:02;;;;;;;2.13;1.17;;;24.40;44.30;23.30;100928.00;;;;5051735;28;20451;-66
2022/06/23 02:49:23;;;;;;;3.00;1.20;;;24.20;44.30;23.30;100910.00;;;;5059075;28;20045;-67
2022/06/23 02:53:07;;;;;;;1.48;1.33;;;24.20;44.30;23.30;100910.00;;;;5062869;28;20119;-67
2022/06/23 02:56:12;;;;;;;1.63;1.08;;;24.30;44.30;23.30;100917.00;;;;5049653;28;20052;-67
2022/06/23 02:59:06;;;;;;;3.10;1.48;;;24.20;44.20;23.30;100910.00;;;;5049717;28;20045;-66
2022/06/23 03:02:13;;;;;;;1.60;1.20;;;24.30;44.30;23.30;100913.00;;;;5045143;28;20398;-67
2022/06/23 03:05:13;;;;;;;1.80;1.13;;;24.20;44.30;23.30;100906.00;;;;5041022;28;20044;-66
2022/06/23 03:08:06;;;;;;;4.15;1.42;;;24.20;44.40;23.30;100910.00;;;;5061157;28;20466;-66
2022/06/23 03:11:03;;;;;;;1.65;1.42;;;24.20;44.40;23.30;100901.00;;;;5051165;28;20059;-67
2022/06/23 03:13:55;;;;;;;2.67;1.58;;;24.20;44.50;23.30;100906.00;;;;5050355;28;20036;-66
2022/06/23 03:16:44;;;;;;;2.05;1.30;;;24.20;44.50;23.30;100898.00;;;;5050438;28;20047;-67
2022/06/23 03:19:42;;;;;;;1.55;1.00;;;24.20;44.50;23.30;100897.00;;;;5051631;28;20072;-66
2022/06/23 03:22:55;;;;;;;2.57;1.27;;;24.20;44.70;23.30;100901.00;;;;5043421;28;20045;-67
2022/06/23 03:26:22;;;;;;;1.50;1.20;;;24.20;44.70;23.20;100896.00;;;;5060512;28;20036;-66
2022/06/23 03:29:43;;;;;;;3.15;1.45;;;24.20;44.70;23.20;100902.00;;;;5059954;28;20040;-66
2022/06/23 03:32:36;;;;;;;1.50;1.10;;;24.20;44.80;23.20;100903.00;;;;5058447;28;20094;-67
2022/06/23 03:35:38;;;;;;;3.10;1.30;;;24.10;44.80;23.20;100908.00;;;;5045475;28;20119;-66
2022/06/23 03:42:17;;;;;;;1.42;1.23;;;24.10;45.00;23.20;100910.00;;;;5038718;28;20173;-67
2022/06/23 03:45:14;;;;;;;1.40;1.20;;;24.10;45.00;23.20;100913.00;;;;5055719;28;20051;-67
2022/06/23 03:48:16;;;;;;;2.55;1.20;;;24.10;45.00;23.20;100916.00;;;;5052943;28;20116;-67
2022/06/23 03:51:25;;;;;;;2.50;1.70;;;24.10;44.80;23.20;100905.00;;;;5056442;28;20486;-67
2022/06/23 03:54:14;;;;;;;3.67;1.30;;;24.10;44.90;23.20;100906.00;;;;5052549;28;20089;-67
2022/06/23 03:57:05;;;;;;;3.22;1.50;;;24.10;44.90;23.20;100914.00;;;;5051402;28;20064;-67
2022/06/23 04:00:34;;;;;;;1.95;1.38;;;24.10;45.00;23.20;100906.00;;;;5043483;28;20037;-67
2022/06/23 04:03:42;;;;;;;2.53;1.17;;;24.10;45.00;23.20;100909.00;;;;5052859;28;20544;-66
2022/06/23 04:06:42;;;;;;;3.70;1.48;;;24.10;45.00;23.20;100910.00;;;;5056453;28;20040;-67
2022/06/23 04:09:32;;;;;;;1.63;1.30;;;24.10;45.10;23.20;100905.00;;;;5069308;28;20507;-67
2022/06/23 04:12:18;;;;;;;3.47;1.42;;;24.10;45.00;23.20;100912.00;;;;5057869;28;20106;-67
2022/06/23 04:15:10;;;;;;;2.08;1.23;;;24.10;45.00;23.20;100910.00;;;;5054933;28;20043;-66
2022/06/23 04:18:09;;;;;;;1.70;1.40;;;24.10;45.00;23.20;100903.00;;;;5050100;28;20053;-66
2022/06/23 04:21:01;;;;;;;2.50;1.25;;;24.10;44.90;23.20;100904.00;;;;5052096;28;20055;-67
2022/06/23 04:23:50;;;;;;;2.67;1.20;;;24.10;44.90;23.20;100895.00;;;;5043367;28;20132;-67
2022/06/23 04:26:39;;;;;;;2.08;1.35;;;24.10;44.90;23.20;100904.00;;;;5065221;28;20053;-66
2022/06/23 04:29:36;;;;;;;2.10;1.48;;;24.10;44.80;23.20;100901.00;;;;5046754;28;20040;-66
2022/06/23 04:32:27;;;;;;;4.10;1.45;;;24.10;44.80;23.20;100894.00;;;;5064241;28;20032;-67
2022/06/23 04:35:16;;;;;;;2.20;1.30;;;24.10;44.90;23.20;100896.00;;;;5039522;28;20047;-67
2022/06/23 04:38:11;;;;;;;2.83;1.20;;;24.10;44.90;23.20;100897.00;;;;5026164;28;20032;-67
2022/06/23 04:41:19;;;;;;;2.65;1.13;;;24.10;45.00;23.20;100894.00;;;;5070632;28;20044;-67
2022/06/23 04:44:25;;;;;;;2.27;1.40;;;24.10;45.10;23.20;100893.00;;;;5056098;28;20048;-67
2022/06/23 04:47:24;;;;;;;1.80;1.30;;;24.10;45.20;23.20;100900.00;;;;5054550;28;20040;-66
2022/06/23 04:50:13;;;;;;;1.90;1.27;;;24.10;45.30;23.20;100901.00;;;;5067707;28;20048;-67
2022/06/23 04:52:59;;;;;;;1.63;1.17;;;24.20;45.40;23.20;100910.00;;;;5042970;28;20109;-66
2022/06/23 04:55:48;;;;;;;2.75;1.30;;;24.10;45.10;23.20;100903.00;;;;5042858;28;20051;-67
2022/06/23 04:58:35;;;;;;;2.97;1.40;;;24.20;45.10;23.20;100894.00;;;;5037666;28;20401;-66
2022/06/23 05:01:24;;;;;;;2.08;1.30;;;24.10;45.20;23.20;100896.00;;;;5027697;28;20044;-67
2022/06/23 05:04:32;;;;;;;1.48;1.10;;;24.10;45.20;23.20;100900.00;;;;5048828;28;20416;-67
2022/06/23 05:07:34;;;;;;;3.47;1.42;;;24.20;45.40;23.20;100895.00;;;;5055881;28;20174;-67
2022/06/23 05:10:34;;;;;;;2.05;1.10;;;24.10;45.30;23.20;100895.00;;;;5063599;28;20124;-66
2022/06/23 05:13:35;;;;;;;1.75;1.20;;;24.20;45.40;23.20;100895.00;;;;5066286;28;20043;-67
2022/06/23 05:16:37;;;;;;;2.40;1.30;;;24.20;45.40;23.20;100894.00;;;;5052349;28;20476;-67
2022/06/23 05:19:46;;;;;;;3.72;1.67;;;24.20;45.40;23.20;100898.00;;;;5048716;28;20060;-66
2022/06/23 05:22:38;;;;;;;2.45;1.40;;;24.20;45.40;23.20;100897.00;;;;5041653;28;20047;-67
2022/06/23 05:25:46;;;;;;;1.83;1.50;;;24.20;45.40;23.20;100902.00;;;;5066194;28;20028;-66
2022/06/23 05:28:35;;;;;;;2.67;1.23;;;24.20;45.40;23.20;100904.00;;;;5060626;28;20099;-66
2022/06/23 05:31:25;;;;;;;3.25;1.40;;;24.20;45.50;23.20;100896.00;;;;5038719;28;20044;-66
2022/06/23 05:34:25;;;;;;;2.90;1.50;;;24.20;45.50;23.20;100904.00;;;;5053831;28;20064;-67
2022/06/23 05:37:25;;;;;;;2.10;1.25;;;24.20;45.60;23.20;100899.00;;;;5037117;28;20033;-67
2022/06/23 05:40:26;;;;;;;2.55;1.50;;;24.20;45.60;23.20;100899.00;;;;5054351;28;20546;-66
2022/06/23 05:43:12;;;;;;;2.17;1.50;;;24.20;45.40;23.20;100892.00;;;;5062951;28;20048;-67
2022/06/23 05:46:00;;;;;;;2.38;1.63;;;24.20;45.30;23.20;100892.00;;;;5053342;28;20044;-66
2022/06/23 05:48:58;;;;;;;;;;;24.10;45.30;23.20;100896.00;;;;5052465;28;20055;-67
2022/06/23 05:51:57;;;;;;;2.40;1.45;;;24.20;45.20;23.20;100894.00;;;;5051839;28;19916;-67
2022/06/23 05:55:05;;;;;;;2.55;1.45;;;24.20;45.30;23.20;100898.00;;;;5051825;28;20052;-67
2022/06/23 05:57:57;;;;;;;3.97;1.42;;;24.20;45.30;23.20;100897.00;;;;5038988;28;20071;-67
2022/06/23 06:01:10;;;;;;;3.38;1.23;;;24.20;45.30;23.20;100892.00;;;;5032750;28;20120;-66
2022/06/23 06:04:22;;;;;;;5.32;1.55;;;24.20;45.40;23.20;100902.00;;;;5041130;28;20514;-67
2022/06/23 06:07:11;;;;;;;3.13;1.70;;;24.20;45.40;23.20;100903.00;;;;5066549;28;20036;-67
2022/06/23 06:09:57;;;;;;;1.80;1.13;;;24.20;45.40;23.20;100900.00;;;;5035798;28;20033;-66
2022/06/23 06:12:43;;;;;;;2.10;1.50;;;24.30;45.40;23.20;100888.00;;;;5067385;28;20133;-67
2022/06/23 06:15:38;;;;;;;1.83;1.08;;;24.20;45.40;23.20;100897.00;;;;5048912;28;20477;-66
2022/06/23 06:18:34;;;;;;;1.90;1.50;;;24.20;45.40;23.20;100894.00;;;;5051715;28;20111;-67
2022/06/23 06:21:16;;;;;;;1.80;1.27;;;24.20;45.50;23.20;100886.00;;;;5057868;28;20411;-65
2022/06/23 06:24:35;;;;;;;2.85;1.40;;;24.20;45.40;23.20;100900.00;;;;5039627;28;20025;-65
2022/06/23 06:27:21;;;;;;;2.47;1.55;;;24.20;45.40;23.20;100899.00;;;;5037728;28;20064;-67
2022/06/23 06:30:14;;;;;;;4.43;1.27;;;24.30;45.40;23.20;100894.00;;;;5038094;28;20475;-67
2022/06/23 06:33:00;;;;;;;1.38;1.13;;;24.30;46.00;23.20;100903.00;;;;5040024;28;20594;-67
2022/06/23 06:35:53;;;;;;;3.20;1.50;;;24.20;45.30;23.20;100898.00;;;;5038759;28;20083;-67
2022/06/23 06:38:39;;;;;;;3.92;1.50;;;24.30;45.40;23.20;100898.00;;;;5040975;28;20037;-67
2022/06/23 06:41:25;;;;;;;3.15;1.30;;;24.30;45.40;23.20;100896.00;;;;5035344;28;20271;-67
2022/06/23 06:44:11;;;;;;;2.45;1.20;;;24.20;45.40;23.20;100893.00;;;;5033082;28;20095;-67
2022/06/23 06:46:57;;;;;;;2.53;1.40;;;24.30;45.40;23.20;100884.00;;;;5036690;28;20207;-67
2022/06/23 06:49:43;;;;;;;2.45;1.42;;;24.30;45.40;23.20;100891.00;;;;5040057;28;20041;-67
2022/06/23 06:52:30;;;;;;;2.40;1.60;;;24.20;45.40;23.20;100891.00;;;;5036098;28;20483;-67
2022/06/23 06:55:32;;;;;;;1.98;1.38;;;24.30;45.50;23.20;100882.00;;;;5040518;28;20510;-66
2022/06/23 06:58:36;;;;;;;1.60;1.25;;;24.20;45.40;23.20;100884.00;;;;5033935;28;20125;-67
2022/06/23 07:01:24;;;;;;;1.95;1.15;;;24.30;45.40;23.20;100878.00;;;;5039362;28;20029;-66
2022/06/23 07:04:33;;;;;;;2.13;1.50;;;24.30;45.40;23.20;100881.00;;;;5039810;28;20037;-66
2022/06/23 07:07:22;;;;;;;2.95;1.58;;;24.30;45.40;23.20;100880.00;;;;5036078;28;20033;-67
2022/06/23 07:10:21;;;;;;;2.13;1.20;;;24.30;45.50;23.20;100890.00;;;;5040536;28;20045;-66
2022/06/23 07:13:30;;;;;;;1.50;1.33;;;24.30;45.50;23.20;100884.00;;;;5041336;28;20127;-67
2022/06/23 07:16:25;;;;;;;2.30;1.60;;;24.30;45.40;23.20;100892.00;;;;5058015;28;20052;-67
2022/06/23 07:19:49;;;;;;;5.70;1.70;;;24.20;45.40;23.20;100893.00;;;;5048672;28;20139;-66
2022/06/23 07:23:00;;;;;;;1.60;1.25;;;24.30;45.40;23.20;100893.00;;;;5046738;28;20457;-67
2022/06/23 07:25:49;;;;;;;2.15;1.40;;;24.30;45.30;23.20;100891.00;;;;5033342;28;20037;-66
2022/06/23 07:28:59;;;;;;;1.45;1.02;;;24.30;45.30;23.20;100883.00;;;;5046000;28;20271;-66
2022/06/23 07:32:26;;;;;;;2.53;1.42;;;24.30;45.30;23.20;100884.00;;;;5030628;28;20040;-67
2022/06/23 07:35:21;;;;;;;1.50;1.30;;;24.30;45.30;23.20;100876.00;;;;5019631;28;20045;-67
2022/06/23 07:38:25;;;;;;;3.08;1.38;;;24.30;45.30;23.20;100884.00;;;;5051685;28;20071;-66
2022/06/23 07:41:22;;;;;;;1.45;1.15;;;24.30;45.30;23.20;100886.00;;;;5033382;28;20071;-66
2022/06/23 07:44:15;;;;;;;2.80;1.13;;;24.30;45.40;23.20;100880.00;;;;5034689;28;20147;-67
2022/06/23 07:47:01;;;;;;;1.80;1.20;;;24.30;46.10;23.20;100874.00;;;;5019767;28;20503;-67
2022/06/23 07:49:47;;;;;;;1.83;1.40;;;24.30;45.30;23.20;100879.00;;;;5017602;28;20087;-66
2022/06/23 07:52:33;;;;;;;1.98;1.40;;;24.30;45.30;23.20;100886.00;;;;5030282;28;20091;-67
2022/06/23 07:55:36;;;;;;;2.92;1.30;;;24.30;45.30;23.20;100874.00;;;;5016322;28;20392;-67
2022/06/23 07:58:25;;;;;;;1.73;1.27;;;24.30;45.30;23.20;100880.00;;;;5034661;28;20056;-67
2022/06/23 08:01:24;;;;;;;2.85;1.45;;;24.30;45.50;23.20;100884.00;;;;5004543;28;20063;-67
2022/06/23 08:04:30;;;;;;;1.45;1.05;;;24.30;45.40;23.20;100876.00;;;;5018439;28;20036;-67
2022/06/23 08:07:16;;;;;;;2.75;1.17;;;24.30;45.40;23.20;100871.00;;;;5045092;28;20041;-67
2022/06/23 08:10:14;;;;;;;1.85;1.30;;;24.20;45.40;23.20;100876.00;;;;5046764;28;20095;-67
2022/06/23 08:13:25;;;;;;;3.10;0.90;;;24.30;45.50;23.20;100880.00;;;;5034440;28;20207;-67
2022/06/23 08:19:38;;;;;;;3.45;1.20;;;24.30;45.40;23.20;100866.00;;;;5024917;28;20585;-67
2022/06/23 08:22:29;;;;;;;1.42;1.10;;;24.30;45.40;23.20;100869.00;;;;5012484;28;20494;-67
2022/06/23 08:25:15;;;;;;;1.63;1.05;;;24.30;45.40;23.20;100863.00;;;;5034138;28;20043;-67
2022/06/23 08:28:02;;;;;;;1.83;1.02;;;24.30;45.40;23.20;100860.00;;;;5030956;28;20033;-67
2022/06/23 08:30:48;;;;;;;2.35;1.10;;;24.30;45.40;23.20;100855.00;;;;5033334;28;20506;-67
2022/06/23 08:33:34;;;;;;;1.20;1.05;;;24.30;45.40;23.20;100858.00;;;;5033617;28;20143;-67
2022/06/23 08:36:22;;;;;;;2.22;1.20;;;24.30;45.40;23.20;100849.00;;;;5035983;28;20071;-67
2022/06/23 08:39:23;;;;;;;1.30;1.20;;;24.30;45.40;23.20;100847.00;;;;5017538;28;20478;-67
2022/06/23 08:42:47;;;;;;;1.33;1.23;;;24.30;45.50;23.20;100856.00;;;;5031144;28;20045;-67
2022/06/23 08:45:53;;;;;;;3.42;1.10;;;24.30;45.60;23.20;100850.00;;;;5049237;28;20380;-67
2022/06/23 08:49:07;;;;;;;2.42;1.10;;;24.20;45.40;23.20;100848.00;;;;5051531;28;20051;-67
2022/06/23 08:52:19;;;;;;;1.35;1.08;;;24.30;45.50;23.20;100844.00;;;;5028597;28;20046;-67
2022/06/23 08:55:17;;;;;;;1.55;1.30;;;24.30;45.70;23.20;100837.00;;;;5064094;28;20048;-67
2022/06/23 08:58:29;;;;;;;1.53;1.20;;;24.30;45.50;23.20;100847.00;;;;5053364;28;20053;-67
2022/06/23 09:01:33;;;;;;;1.85;1.30;;;24.30;45.50;23.20;100831.00;;;;5033897;28;20512;-67
2022/06/23 09:04:51;;;;;;;1.23;1.13;;;24.30;45.60;23.20;100833.00;;;;5051467;28;20042;-67
2022/06/23 09:08:06;;;;;;;1.65;1.00;;;24.30;45.50;23.20;100833.00;;;;5052295;28;20485;-67
2022/06/23 09:11:23;;;;;;;1.77;1.27;;;24.30;45.60;23.20;100836.00;;;;5051428;28;20044;-67
2022/06/23 09:14:41;;;;;;;1.50;1.00;;;24.40;45.50;23.20;100830.00;;;;5039244;28;20029;-67
2022/06/23 09:17:34;;;;;;;1.60;1.23;;;24.30;45.40;23.20;100837.00;;;;5050259;28;20131;-67
2022/06/23 09:20:58;;;;;;;1.95;1.10;;;24.30;45.40;23.20;100845.00;;;;5053525;28;20051;-67
2022/06/23 09:23:58;;;;;;;1.90;1.00;;;24.30;45.50;23.20;100843.00;;;;5047089;28;20560;-67
2022/06/23 09:27:02;;;;;;;2.17;1.20;;;24.30;45.40;23.20;100830.00;;;;5035540;28;20041;-67
2022/06/23 09:30:06;;;;;;;1.17;0.98;;;24.30;45.50;23.20;100827.00;;;;5035437;28;20036;-67
2022/06/23 09:32:58;;;;;;;1.02;0.93;;;24.30;45.60;23.20;100825.00;;;;5049376;28;20041;-67
2022/06/23 09:36:23;;;;;;;1.05;0.90;;;24.30;45.60;23.20;100823.00;;;;5047453;28;20063;-67
2022/06/23 09:39:42;;;;;;;1.10;0.90;;;24.30;45.60;23.20;100818.00;;;;5053433;28;20409;-67
2022/06/23 09:42:49;;;;;;;1.98;1.20;;;24.30;45.50;23.20;100820.00;;;;5065354;28;20564;-67
2022/06/23 09:46:09;;;;;;;1.33;1.13;;;24.30;45.50;23.20;100818.00;;;;5045907;28;20044;-67
2022/06/23 09:49:31;;;;;;;2.47;1.25;;;24.30;45.60;23.20;100822.00;;;;5048225;28;20036;-67
2022/06/23 09:52:38;;;;;;;2.42;1.10;;;24.30;45.70;23.20;100814.00;;;;5051923;28;20139;-67
2022/06/23 09:56:02;;;;;;;1.55;1.10;;;24.30;45.60;23.20;100823.00;;;;5044251;28;20048;-67
2022/06/23 09:59:16;;;;;;;1.38;1.20;;;24.30;45.70;23.20;100817.00;;;;5039010;28;20219;-67
2022/06/23 10:02:26;;;;;;;1.30;1.08;;;24.30;45.70;23.20;100811.00;;;;5060911;28;20037;-67
2022/06/23 10:05:24;;;;;;;1.88;1.17;;;24.30;45.60;23.20;100809.00;;;;5048043;28;20045;-67
2022/06/23 10:08:36;;;;;;;1.52;0.95;;;24.30;45.50;23.20;100807.00;;;;5061775;28;20040;-67
2022/06/23 10:11:47;;;;;;;1.20;1.10;;;24.30;45.50;23.20;100795.00;;;;5047870;28;20127;-67
2022/06/23 10:14:52;;;;;;;0.88;0.88;;;24.30;45.60;23.20;100801.00;;;;5046083;28;20087;-67
2022/06/23 10:18:12;;;;;;;1.27;0.90;;;24.30;45.60;23.20;100804.00;;;;5050591;28;20032;-67
2022/06/23 10:21:40;;;;;;;2.80;0.90;;;24.30;45.60;23.20;100799.00;;;;5063247;28;20040;-67
2022/06/23 10:25:02;;;;;;;2.47;0.90;;;24.30;45.70;23.20;100804.00;;;;5061780;28;20677;-67
2022/06/23 10:28:14;;;;;;;2.53;1.38;;;24.30;45.70;23.20;100800.00;;;;5027757;28;20524;-67
2022/06/23 10:31:43;;;;;;;1.15;1.05;;;24.30;45.60;23.20;100799.00;;;;5050141;28;20048;-67
2022/06/23 10:34:55;;;;;;;1.55;0.80;;;24.30;45.80;23.20;100802.00;;;;5059549;28;20204;-67
2022/06/23 10:38:06;;;;;;;1.75;1.30;;;24.30;45.70;23.20;100799.00;;;;5050485;28;20039;-67
2022/06/23 10:41:03;;;;;;;1.95;1.30;;;24.30;45.60;23.20;100788.00;;;;5049239;28;20040;-67
2022/06/23 10:44:05;;;;;;;1.40;1.20;;;24.30;45.60;23.20;100784.00;;;;5047076;28;20044;-67
2022/06/23 10:47:12;;;;;;;0.93;0.93;;;24.30;45.70;23.20;100783.00;;;;5045434;28;20044;-67
2022/06/23 10:50:30;;;;;;;1.42;1.20;;;24.30;45.90;23.20;100779.00;;;;5060525;28;20504;-67
2022/06/23 10:53:33;;;;;;;1.33;1.08;;;24.40;46.10;23.20;100773.00;;;;5043342;28;20301;-67
2022/06/23 10:56:49;;;;;;;2.53;1.20;;;24.30;45.70;23.20;100765.00;;;;5047054;28;20079;-67
2022/06/23 10:59:59;;;;;;;5.53;1.55;;;24.30;45.60;23.20;100768.00;;;;5044488;28;20040;-67
2022/06/23 11:03:35;;;;;;;1.35;1.13;;;24.30;45.30;23.20;100754.00;;;;5039650;28;20044;-67
2022/06/23 11:06:58;;;;;;;1.20;1.10;;;24.30;45.40;23.20;100755.00;;;;5063500;28;20043;-67
2022/06/23 11:10:21;;;;;;;2.20;1.42;;;24.30;45.40;23.20;100748.00;;;;5047500;28;20119;-67
2022/06/23 11:13:51;;;;;;;1.48;1.10;;;24.40;45.50;23.20;100747.00;;;;5065906;28;20051;-67
2022/06/23 11:16:52;;;;;;;3.13;1.20;;;24.40;45.50;23.20;100743.00;;;;5011645;28;20044;-67
2022/06/23 11:19:44;;;;;;;1.40;1.30;;;24.40;45.70;23.30;100747.00;;;;5050991;28;20044;-67
2022/06/23 11:22:53;;;;;;;4.22;1.40;;;24.40;45.60;23.30;100752.00;;;;5067714;28;20090;-67
2022/06/23 11:26:00;;;;;;;3.40;1.20;;;24.40;45.60;23.30;100743.00;;;;5051306;28;20029;-67
2022/06/23 11:29:27;;;;;;;1.33;1.13;;;24.40;45.50;23.30;100741.00;;;;5052343;28;20039;-67
2022/06/23 11:32:52;;;;;;;2.08;1.00;;;24.40;45.60;23.30;100739.00;;;;5067772;28;20377;-67
2022/06/23 11:36:14;;;;;;;2.22;1.17;;;24.40;46.00;23.30;100732.00;;;;5061016;28;20486;-67
2022/06/23 11:39:17;;;;;;;3.75;1.00;;;24.40;45.50;23.30;100734.00;;;;5051846;28;20185;-67
2022/06/23 11:42:13;;;;;;;2.22;1.00;;;24.40;45.50;23.30;100720.00;;;;5066839;28;20131;-67
2022/06/23 11:45:30;;;;;;;3.50;1.38;;;24.40;45.40;23.30;100735.00;;;;5035786;28;20075;-67
2022/06/23 11:48:49;;;;;;;2.38;1.17;;;24.40;45.40;23.30;100728.00;;;;5064788;28;20513;-67
2022/06/23 11:52:01;;;;;;;1.73;1.50;;;24.50;45.40;23.30;100722.00;;;;5038143;28;20044;-67
2022/06/23 11:55:00;;;;;;;2.33;1.27;;;24.50;45.10;23.30;100721.00;;;;5051968;28;20502;-67
2022/06/23 11:58:16;;;;;;;2.50;1.30;;;24.50;45.20;23.30;100712.00;;;;5064282;28;20124;-67
2022/06/23 12:01:21;;;;;;;1.20;1.00;;;24.50;45.20;23.30;100720.00;;;;5052084;28;20390;-67
2022/06/23 12:04:28;;;;;;;1.23;1.13;;;24.50;45.10;23.30;100722.00;;;;5053231;28;20051;-67
2022/06/23 12:08:03;;;;;;;1.50;1.30;;;24.50;45.10;23.30;100712.00;;;;5064597;28;20036;-67
2022/06/23 12:10:49;;;;;;;1.27;1.05;;;24.50;45.20;23.30;100720.00;;;;5051397;28;20549;-67
2022/06/23 12:13:35;;;;;;;1.05;1.00;;;24.50;45.30;23.30;100711.00;;;;5058738;28;20049;-67
2022/06/23 12:16:21;;;;;;;2.08;1.02;;;24.50;45.30;23.30;100712.00;;;;5049094;28;20044;-67
2022/06/23 12:19:14;;;;;;;1.20;1.00;;;24.50;45.30;23.40;100708.00;;;;5064640;28;20044;-67
2022/06/23 12:22:08;;;;;;;2.63;1.27;;;24.60;45.40;23.30;100695.00;;;;5036801;28;20040;-67
2022/06/23 12:25:17;;;;;;;1.65;1.27;;;24.50;45.30;23.40;100695.00;;;;5043749;28;20097;-67
2022/06/23 12:28:36;;;;;;;1.88;1.10;;;24.50;45.40;23.40;100692.00;;;;5066989;28;20080;-67
2022/06/23 12:31:39;;;;;;;1.33;0.93;;;24.60;45.50;23.40;100690.00;;;;5055455;28;20071;-67
2022/06/23 12:34:50;;;;;;;1.10;1.00;;;24.50;45.30;23.40;100689.00;;;;5045428;28;20036;-67
2022/06/23 12:38:07;;;;;;;2.20;1.10;;;24.60;45.30;23.40;100682.00;;;;5040464;28;20045;-67
2022/06/23 12:41:00;;;;;;;1.45;1.33;;;24.60;45.40;23.40;100687.00;;;;5050735;28;20036;-67
2022/06/23 12:44:00;;;;;;;2.08;1.13;;;24.60;45.30;23.40;100679.00;;;;5042132;28;20460;-67
2022/06/23 12:47:05;;;;;;;2.40;1.27;;;24.60;45.10;23.40;100678.00;;;;5039364;28;20040;-67
2022/06/23 12:50:45;;;;;;;1.92;1.20;;;24.60;45.10;23.40;100677.00;;;;5065046;28;20044;-67
2022/06/23 12:53:52;;;;;;;1.30;1.10;;;24.60;45.20;23.40;100672.00;;;;5058196;28;20470;-67
2022/06/23 12:56:56;;;;;;;1.38;1.10;;;24.50;45.20;23.40;100673.00;;;;5064460;28;20448;-67
2022/06/23 13:00:05;;;;;;;0.90;0.90;;;24.60;45.20;23.40;100657.00;;;;5066671;28;20043;-67
2022/06/23 13:03:09;;;;;;;1.30;1.20;;;24.60;45.20;23.40;100665.00;;;;5050017;28;20072;-67
2022/06/23 13:06:33;;;;;;;1.00;1.00;;;24.60;45.30;23.40;100657.00;;;;5026615;28;20033;-67
2022/06/23 13:09:41;;;;;;;1.10;1.00;;;24.60;45.20;23.40;100660.00;;;;5026672;28;20037;-67
2022/06/23 13:12:52;;;;;;;1.17;1.02;;;24.50;45.10;23.40;100656.00;;;;5052158;28;20378;-67
2022/06/23 13:15:59;;;;;;;1.58;1.08;;;24.60;45.20;23.40;100655.00;;;;5048610;28;20036;-67
2022/06/23 13:19:07;;;;;;;1.10;1.00;;;24.60;45.20;23.40;100653.00;;;;5064102;28;20064;-67
2022/06/23 13:21:53;;;;;;;1.33;1.02;;;24.60;45.30;23.40;100648.00;;;;5040255;28;20059;-67
2022/06/23 13:24:42;;;;;;;1.33;0.98;;;24.60;45.20;23.40;100649.00;;;;5023413;28;20440;-67
2022/06/23 13:27:29;;;;;;;1.27;1.17;;;24.70;45.30;23.50;100641.00;;;;5035571;28;20032;-67
2022/06/23 13:30:15;;;;;;;1.38;1.05;;;24.70;45.30;23.50;100643.00;;;;5045516;28;20047;-67